createdAt,value
2018-01-27T00:01:01.439Z,38.00
2018-01-27T00:03:28.978Z,40.17
2018-01-27T00:05:56.531Z,38.80
2018-01-27T00:08:24.075Z,40.00
2018-01-27T00:10:52.395Z,38.00
2018-01-27T00:13:19.935Z,38.63
2018-01-27T00:15:47.510Z,39.10
2018-01-27T00:18:15.053Z,37.83
2018-01-27T00:20:42.615Z,38.40
2018-01-27T00:23:10.935Z,36.80
2018-01-27T00:25:38.483Z,42.57
2018-01-27T00:28:06.039Z,39.50
2018-01-27T00:30:34.349Z,38.07
2018-01-27T00:33:01.931Z,41.90
2018-01-27T00:35:29.473Z,38.80
2018-01-27T00:37:57.029Z,36.93
2018-01-27T00:40:24.579Z,38.57
2018-01-27T00:42:52.145Z,37.77
2018-01-27T00:45:19.706Z,36.97
2018-01-27T00:47:47.320Z,35.63
2018-01-27T00:50:14.828Z,33.60
2018-01-27T00:52:42.391Z,34.50
2018-01-27T00:55:09.936Z,36.30
2018-01-27T00:57:37.487Z,32.67
2018-01-27T01:00:05.047Z,34.60
2018-01-27T01:02:32.586Z,37.13
2018-01-27T01:05:00.143Z,33.07
2018-01-27T01:07:28.449Z,34.40
2018-01-27T01:09:56.776Z,30.73
2018-01-27T01:12:24.659Z,32.30
2018-01-27T01:14:53.028Z,33.40
2018-01-27T01:17:20.563Z,27.33
2018-01-27T01:19:48.115Z,29.83
2018-01-27T01:22:16.411Z,29.50
2018-01-27T01:24:44.751Z,29.20
2018-01-27T01:27:12.282Z,33.30
2018-01-27T01:29:39.851Z,31.30
2018-01-27T01:32:07.397Z,31.17
2018-01-27T01:34:34.960Z,32.77
2018-01-27T01:37:03.287Z,34.67
2018-01-27T01:39:30.841Z,38.37
2018-01-27T01:41:59.172Z,41.17
2018-01-27T01:44:26.728Z,43.83
2018-01-27T01:46:55.050Z,42.97
2018-01-27T01:49:24.371Z,40.20
2018-01-27T01:51:51.930Z,42.13
2018-01-27T01:54:20.235Z,42.63
2018-01-27T01:56:48.563Z,40.47
2018-01-27T01:59:16.104Z,37.17
2018-01-27T02:01:43.654Z,36.47
2018-01-27T02:04:11.195Z,32.83
2018-01-27T02:06:39.519Z,31.33
2018-01-27T02:09:07.067Z,32.03
2018-01-27T02:11:35.374Z,30.63
2018-01-27T02:14:03.706Z,32.50
2018-01-27T02:16:31.243Z,31.90
2018-01-27T02:18:58.802Z,31.20
2018-01-27T02:21:26.352Z,28.77
2018-01-27T02:23:53.912Z,29.27
2018-01-27T02:26:21.447Z,30.00
2018-01-27T02:28:49.008Z,34.10
2018-01-27T02:31:16.543Z,30.07
2018-01-27T02:33:44.107Z,34.50
2018-01-27T02:36:11.655Z,35.00
2018-01-27T02:38:39.216Z,35.07
2018-01-27T02:41:07.519Z,33.57
2018-01-27T02:43:35.848Z,37.63
2018-01-27T02:46:03.412Z,34.60
2018-01-27T02:48:30.947Z,25.57
2018-01-27T02:50:58.529Z,28.43
2018-01-27T02:53:26.082Z,27.00
2018-01-27T02:55:53.652Z,28.93
2018-01-27T02:58:21.196Z,19.60
2018-01-27T03:00:48.774Z,19.30
2018-01-27T03:03:16.325Z,19.30
2018-01-27T03:05:43.893Z,26.33
2018-01-27T03:08:11.440Z,21.70
2018-01-27T03:10:39.005Z,21.30
2018-01-27T03:13:06.593Z,28.40
2018-01-27T03:15:34.128Z,28.47
2018-01-27T03:18:02.074Z,26.87
2018-01-27T03:20:29.646Z,28.07
2018-01-27T03:22:57.190Z,29.13
2018-01-27T03:25:24.734Z,31.77
2018-01-27T03:27:53.073Z,29.63
2018-01-27T03:30:20.626Z,28.40
2018-01-27T03:32:48.196Z,28.10
2018-01-27T03:35:15.740Z,27.23
2018-01-27T03:37:43.295Z,26.80
2018-01-27T03:40:11.600Z,22.97
2018-01-27T03:42:39.932Z,27.70
2018-01-27T03:45:07.478Z,27.17
2018-01-27T03:47:35.808Z,31.03
2018-01-27T03:50:03.348Z,32.57
2018-01-27T03:52:30.916Z,31.07
2018-01-27T03:54:58.468Z,28.80
2018-01-27T03:57:26.042Z,28.00
2018-01-27T03:59:53.597Z,31.57
2018-01-27T04:02:21.948Z,31.33
2018-01-27T04:04:49.487Z,36.57
2018-01-27T04:07:17.797Z,33.57
2018-01-27T04:09:45.376Z,34.07
2018-01-27T04:12:13.689Z,35.77
2018-01-27T04:14:41.251Z,38.43
2018-01-27T04:17:08.797Z,39.03
2018-01-27T04:19:36.372Z,42.83
2018-01-27T04:22:03.916Z,40.13
2018-01-27T04:24:32.245Z,39.97
2018-01-27T04:26:59.801Z,41.00
2018-01-27T04:29:27.391Z,39.17
2018-01-27T04:31:54.950Z,42.13
2018-01-27T04:34:23.277Z,44.80
2018-01-27T04:36:51.584Z,44.77
2018-01-27T04:39:19.157Z,41.70
2018-01-27T04:41:47.469Z,45.70
2018-01-27T04:44:15.036Z,46.80
2018-01-27T04:46:43.350Z,45.47
2018-01-27T04:49:10.920Z,43.80
2018-01-27T04:51:39.244Z,44.13
2018-01-27T04:54:06.783Z,40.27
2018-01-27T04:56:34.357Z,41.03
2018-01-27T04:59:01.911Z,41.90
2018-01-27T05:01:29.519Z,41.47
2018-01-27T05:03:57.036Z,39.30
2018-01-27T05:06:25.359Z,42.07
2018-01-27T05:08:52.919Z,40.00
2018-01-27T05:11:21.256Z,42.23
2018-01-27T05:13:48.801Z,39.50
2018-01-27T05:16:16.366Z,40.47
2018-01-27T05:18:43.924Z,40.70
2018-01-27T05:21:11.491Z,41.43
2018-01-27T05:23:39.041Z,39.00
2018-01-27T05:26:06.613Z,38.00
2018-01-27T05:28:34.169Z,36.60
2018-01-27T05:31:01.758Z,37.47
2018-01-27T05:33:29.313Z,35.77
2018-01-27T05:35:56.859Z,38.97
2018-01-27T05:38:24.425Z,37.07
2018-01-27T05:40:51.981Z,40.10
2018-01-27T05:43:19.564Z,37.27
2018-01-27T05:45:47.135Z,37.87
2018-01-27T05:48:14.718Z,39.87
2018-01-27T05:50:43.038Z,36.93
2018-01-27T05:53:10.650Z,35.30
2018-01-27T05:55:38.223Z,39.03
2018-01-27T05:58:05.784Z,39.73
2018-01-27T06:00:33.328Z,39.80
2018-01-27T06:03:00.909Z,40.53
2018-01-27T06:05:28.465Z,42.57
2018-01-27T06:07:56.079Z,36.77
2018-01-27T06:10:23.618Z,38.27
2018-01-27T06:12:51.160Z,36.17
2018-01-27T06:15:18.733Z,37.03
2018-01-27T06:17:46.292Z,38.40
2018-01-27T06:20:13.861Z,36.70
2018-01-27T06:22:41.408Z,37.27
2018-01-27T06:25:09.740Z,36.27
2018-01-27T06:27:37.290Z,38.40
2018-01-27T06:30:05.616Z,39.97
2018-01-27T06:32:33.168Z,36.13
2018-01-27T06:35:01.501Z,35.70
2018-01-27T06:37:29.056Z,35.03
2018-01-27T06:39:57.392Z,36.70
2018-01-27T06:42:24.933Z,35.10
2018-01-27T06:44:52.518Z,35.03
2018-01-27T06:47:20.068Z,36.30
2018-01-27T06:49:47.620Z,35.70
2018-01-27T06:52:15.194Z,34.03
2018-01-27T06:54:43.509Z,33.27
2018-01-27T06:57:11.114Z,31.27
2018-01-27T06:59:38.667Z,32.70
2018-01-27T07:02:06.992Z,32.73
2018-01-27T07:04:34.549Z,33.20
2018-01-27T07:07:02.888Z,31.67
2018-01-27T07:09:30.444Z,29.53
2018-01-27T07:11:58.007Z,31.23
2018-01-27T07:14:26.320Z,32.80
2018-01-27T07:16:54.648Z,30.40
2018-01-27T07:19:22.201Z,32.40
2018-01-27T07:21:50.539Z,31.67
2018-01-27T07:24:18.084Z,30.10
2018-01-27T07:26:46.401Z,30.63
2018-01-27T07:29:13.969Z,31.80
2018-01-27T07:31:42.281Z,32.70
2018-01-27T07:34:10.615Z,30.63
2018-01-27T07:36:38.152Z,30.57
2018-01-27T07:39:06.481Z,31.57
2018-01-27T07:41:34.032Z,31.30
2018-01-27T07:44:02.369Z,32.50
2018-01-27T07:46:29.916Z,33.83
2018-01-27T07:48:57.471Z,33.70
2018-01-27T07:51:25.025Z,30.40
2018-01-27T07:53:52.585Z,32.00
2018-01-27T07:56:20.900Z,32.60
2018-01-27T07:58:48.465Z,32.73
2018-01-27T08:01:16.781Z,29.80
2018-01-27T08:03:44.372Z,31.77
2018-01-27T08:06:11.936Z,32.30
2018-01-27T08:08:40.274Z,29.00
2018-01-27T08:11:07.840Z,34.07
2018-01-27T08:13:35.416Z,31.87
2018-01-27T08:16:02.988Z,29.07
2018-01-27T08:18:31.306Z,31.53
2018-01-27T08:20:58.863Z,31.43
2018-01-27T08:23:26.405Z,30.67
2018-01-27T08:25:53.977Z,32.07
2018-01-27T08:28:21.524Z,30.97
2018-01-27T08:30:49.860Z,31.13
2018-01-27T08:33:17.409Z,33.70
2018-01-27T08:35:45.736Z,33.80
2018-01-27T08:38:13.281Z,30.13
2018-01-27T08:40:40.866Z,31.43
2018-01-27T08:43:08.416Z,31.60
2018-01-27T08:45:35.972Z,30.00
2018-01-27T08:48:03.533Z,33.17
2018-01-27T08:50:31.871Z,29.60
2018-01-27T08:52:59.436Z,32.50
2018-01-27T08:55:26.980Z,30.77
2018-01-27T08:57:54.549Z,30.37
2018-01-27T09:00:22.100Z,30.80
2018-01-27T09:02:49.663Z,26.67
2018-01-27T09:05:17.970Z,29.07
2018-01-27T09:07:45.550Z,26.40
2018-01-27T09:10:13.863Z,29.43
2018-01-27T09:12:41.427Z,29.67
2018-01-27T09:15:09.741Z,27.13
2018-01-27T09:17:37.299Z,25.50
2018-01-27T09:20:04.846Z,28.43
2018-01-27T09:22:32.439Z,27.37
2018-01-27T09:24:59.983Z,26.70
2018-01-27T09:27:27.536Z,28.30
2018-01-27T09:29:55.912Z,30.07
2018-01-27T09:32:23.447Z,27.50
2018-01-27T09:34:51.002Z,28.07
2018-01-27T09:37:18.544Z,29.60
2018-01-27T09:39:46.116Z,29.23
2018-01-27T09:42:13.651Z,28.37
2018-01-27T09:44:41.217Z,29.00
2018-01-27T09:47:08.761Z,27.70
2018-01-27T09:49:36.364Z,27.40
2018-01-27T09:52:03.916Z,27.57
2018-01-27T09:54:31.494Z,28.30
2018-01-27T09:56:59.804Z,27.33
2018-01-27T09:59:27.358Z,26.87
2018-01-27T10:01:55.704Z,29.10
2018-01-27T10:04:23.249Z,25.90
2018-01-27T10:06:50.815Z,27.47
2018-01-27T10:09:19.873Z,26.00
2018-01-27T10:11:48.201Z,25.43
2018-01-27T10:14:15.761Z,26.30
2018-01-27T10:16:43.327Z,25.30
2018-01-27T10:19:11.644Z,25.63
2018-01-27T10:21:39.981Z,25.73
2018-01-27T10:24:07.692Z,27.43
2018-01-27T10:26:35.248Z,23.53
2018-01-27T10:29:02.797Z,25.97
2018-01-27T10:31:31.131Z,25.47
2018-01-27T10:33:58.671Z,23.17
2018-01-27T10:36:26.991Z,24.87
2018-01-27T10:38:54.555Z,24.13
2018-01-27T10:41:22.865Z,22.87
2018-01-27T10:43:51.204Z,23.87
2018-01-27T10:46:18.749Z,22.83
2018-01-27T10:48:47.076Z,21.50
2018-01-27T10:51:14.633Z,25.23
2018-01-27T10:53:42.969Z,23.57
2018-01-27T10:56:10.516Z,22.00
2018-01-27T10:58:38.852Z,22.90
2018-01-27T11:01:06.395Z,22.20
2018-01-27T11:03:33.991Z,22.73
2018-01-27T11:06:02.307Z,19.37
2018-01-27T11:08:29.889Z,20.83
2018-01-27T11:10:57.433Z,19.00
2018-01-27T11:13:24.993Z,19.10
2018-01-27T11:15:52.541Z,20.20
2018-01-27T11:18:20.084Z,17.53
2018-01-27T11:20:47.649Z,16.50
2018-01-27T11:23:15.184Z,16.90
2018-01-27T11:25:43.511Z,18.57
2018-01-27T11:28:11.056Z,19.20
2018-01-27T11:30:38.626Z,17.10
2018-01-27T11:33:06.199Z,16.93
2018-01-27T11:35:33.764Z,16.83
2018-01-27T11:38:01.316Z,16.17
2018-01-27T11:40:28.885Z,15.33
2018-01-27T11:42:57.200Z,14.97
2018-01-27T11:45:24.768Z,15.60
2018-01-27T11:47:53.088Z,14.87
2018-01-27T11:50:20.654Z,14.27
2018-01-27T11:52:48.966Z,14.27
2018-01-27T11:55:17.272Z,13.20
2018-01-27T11:57:45.600Z,15.83
2018-01-27T12:00:13.139Z,14.27
2018-01-27T12:02:40.706Z,13.93
2018-01-27T12:05:08.294Z,13.70
2018-01-27T12:07:35.861Z,12.97
2018-01-27T12:10:03.405Z,14.30
2018-01-27T12:12:30.973Z,14.63
2018-01-27T12:14:59.292Z,14.03
2018-01-27T12:17:26.865Z,14.30
2018-01-27T12:19:54.413Z,12.83
2018-01-27T12:22:21.967Z,13.83
2018-01-27T12:24:49.500Z,12.40
2018-01-27T12:27:17.833Z,12.43
2018-01-27T12:29:45.381Z,12.30
2018-01-27T12:32:13.716Z,11.07
2018-01-27T12:34:41.300Z,11.70
2018-01-27T12:37:08.840Z,11.83
2018-01-27T12:39:36.400Z,11.40
2018-01-27T12:42:03.944Z,10.30
2018-01-27T12:44:31.516Z,12.07
2018-01-27T12:46:59.833Z,12.07
2018-01-27T12:49:27.397Z,11.73
2018-01-27T12:51:55.705Z,12.20
2018-01-27T12:54:24.040Z,11.80
2018-01-27T12:56:51.593Z,10.93
2018-01-27T12:59:19.160Z,10.20
2018-01-27T13:01:47.470Z,9.40
2018-01-27T13:04:15.812Z,7.77
2018-01-27T13:06:43.368Z,9.20
2018-01-27T13:09:10.910Z,8.93
2018-01-27T13:11:38.478Z,7.70
2018-01-27T13:14:06.020Z,7.80
2018-01-27T13:16:34.339Z,8.93
2018-01-27T13:19:01.900Z,8.77
2018-01-27T13:21:30.221Z,7.50
2018-01-27T13:23:57.771Z,8.23
2018-01-27T13:26:26.104Z,7.27
2018-01-27T13:28:53.653Z,7.43
2018-01-27T13:31:21.980Z,8.90
2018-01-27T13:33:49.523Z,7.73
2018-01-27T13:36:17.084Z,8.33
2018-01-27T13:38:44.611Z,8.50
2018-01-27T13:41:12.948Z,8.80
2018-01-27T13:43:40.483Z,8.87
2018-01-27T13:46:08.024Z,10.17
2018-01-27T13:48:35.580Z,9.07
2018-01-27T13:51:03.125Z,7.97
2018-01-27T13:53:30.695Z,9.30
2018-01-27T13:55:58.247Z,9.03
2018-01-27T13:58:25.817Z,10.27
2018-01-27T14:00:53.361Z,11.03
2018-01-27T14:03:20.931Z,11.40
2018-01-27T14:05:48.466Z,11.63
2018-01-27T14:08:16.023Z,10.13
2018-01-27T14:10:43.608Z,10.53
2018-01-27T14:13:11.152Z,9.63
2018-01-27T14:15:38.706Z,10.40
2018-01-27T14:18:06.293Z,10.03
2018-01-27T14:20:33.833Z,9.23
2018-01-27T14:23:01.375Z,9.83
2018-01-27T14:25:28.928Z,9.97
2018-01-27T14:27:57.235Z,10.27
2018-01-27T14:30:25.568Z,10.90
2018-01-27T14:32:53.114Z,10.07
2018-01-27T14:35:21.447Z,10.93
2018-01-27T14:37:49.156Z,9.83
2018-01-27T14:40:16.720Z,10.50
2018-01-27T14:42:44.269Z,10.13
2018-01-27T14:45:12.596Z,9.33
2018-01-27T14:47:40.160Z,10.10
2018-01-27T14:50:08.488Z,14.77
2018-01-27T14:52:36.037Z,10.67
2018-01-27T14:55:04.364Z,10.23
2018-01-27T14:57:31.937Z,10.73
2018-01-27T14:59:59.474Z,13.03
2018-01-27T15:02:27.022Z,9.43
2018-01-27T15:04:54.556Z,9.30
2018-01-27T15:07:22.107Z,11.10
2018-01-27T15:09:49.656Z,10.00
2018-01-27T15:12:17.216Z,11.40
2018-01-27T15:14:44.764Z,15.30
2018-01-27T15:17:12.330Z,8.93
2018-01-27T15:19:39.910Z,10.30
2018-01-27T15:22:07.471Z,8.90
2018-01-27T15:24:35.776Z,9.90
2018-01-27T15:27:03.349Z,9.23
2018-01-27T15:29:31.656Z,7.57
2018-01-27T15:31:59.976Z,8.00
2018-01-27T15:34:27.516Z,10.77
2018-01-27T15:36:55.056Z,9.10
2018-01-27T15:39:22.625Z,10.13
2018-01-27T15:41:50.174Z,10.00
2018-01-27T15:44:17.741Z,9.53
2018-01-27T15:46:45.288Z,9.70
2018-01-27T15:49:12.856Z,11.40
2018-01-27T15:51:40.390Z,9.60
2018-01-27T15:54:08.716Z,8.53
2018-01-27T15:56:36.256Z,10.10
2018-01-27T15:59:03.820Z,11.20
2018-01-27T16:01:31.384Z,10.10
2018-01-27T16:03:58.954Z,8.60
2018-01-27T16:06:26.497Z,9.10
2018-01-27T16:08:54.060Z,9.30
2018-01-27T16:11:21.603Z,9.97
2018-01-27T16:13:49.189Z,10.17
2018-01-27T16:16:16.745Z,10.07
2018-01-27T16:18:44.288Z,11.20
2018-01-27T16:21:11.893Z,9.17
2018-01-27T16:23:39.440Z,10.10
2018-01-27T16:26:07.769Z,9.63
2018-01-27T16:28:35.310Z,9.47
2018-01-27T16:31:03.660Z,10.67
2018-01-27T16:33:31.209Z,10.73
2018-01-27T16:35:58.764Z,10.57
2018-01-27T16:38:26.329Z,11.27
2018-01-27T16:40:53.887Z,10.23
2018-01-27T16:43:21.429Z,11.13
2018-01-27T16:45:48.996Z,10.33
2018-01-27T16:48:16.560Z,12.37
2018-01-27T16:50:44.127Z,11.23
2018-01-27T16:53:11.676Z,12.57
2018-01-27T16:55:40.003Z,10.17
2018-01-27T16:58:07.555Z,11.20
2018-01-27T17:00:35.092Z,11.37
2018-01-27T17:03:02.658Z,12.23
2018-01-27T17:05:30.208Z,11.47
2018-01-27T17:07:58.549Z,11.83
2018-01-27T17:10:26.088Z,9.80
2018-01-27T17:12:53.649Z,11.43
2018-01-27T17:15:21.197Z,11.40
2018-01-27T17:17:48.760Z,11.10
2018-01-27T17:20:17.072Z,11.17
2018-01-27T17:22:44.637Z,12.30
2018-01-27T17:25:12.957Z,11.23
2018-01-27T17:27:41.304Z,12.50
2018-01-27T17:30:08.848Z,12.03
2018-01-27T17:32:36.401Z,10.73
2018-01-27T17:35:03.964Z,12.93
2018-01-27T17:37:31.510Z,12.20
2018-01-27T17:39:59.104Z,12.40
2018-01-27T17:42:26.636Z,12.70
2018-01-27T17:44:54.204Z,11.63
2018-01-27T17:47:21.758Z,12.50
2018-01-27T17:49:49.324Z,12.80
2018-01-27T17:52:16.864Z,13.00
2018-01-27T17:54:44.426Z,13.40
2018-01-27T17:57:12.005Z,12.97
2018-01-27T17:59:39.564Z,14.27
2018-01-27T18:02:07.100Z,14.00
2018-01-27T18:04:34.662Z,13.80
2018-01-27T18:07:03.103Z,15.60
2018-01-27T18:09:31.437Z,15.90
2018-01-27T18:11:58.989Z,14.00
2018-01-27T18:14:27.291Z,16.00
2018-01-27T18:16:55.607Z,14.23
2018-01-27T18:19:23.912Z,16.13
2018-01-27T18:21:51.466Z,15.43
2018-01-27T18:24:19.012Z,15.10
2018-01-27T18:26:46.580Z,14.80
2018-01-27T18:29:14.137Z,14.47
2018-01-27T18:31:42.473Z,16.03
2018-01-27T18:34:10.025Z,14.87
2018-01-27T18:36:38.357Z,15.77
2018-01-27T18:39:05.909Z,16.40
2018-01-27T18:41:33.492Z,17.30
2018-01-27T18:44:01.805Z,16.07
2018-01-27T18:46:29.358Z,15.67
2018-01-27T18:48:56.920Z,17.67
2018-01-27T18:51:24.460Z,18.00
2018-01-27T18:53:52.032Z,19.87
2018-01-27T18:56:20.332Z,19.70
2018-01-27T18:58:48.651Z,19.30
2018-01-27T19:01:16.232Z,20.50
2018-01-27T19:03:43.820Z,21.43
2018-01-27T19:06:11.369Z,18.70
2018-01-27T19:08:38.932Z,20.77
2018-01-27T19:11:06.485Z,20.17
2018-01-27T19:13:34.052Z,19.47
2018-01-27T19:16:01.612Z,21.57
2018-01-27T19:18:29.930Z,22.30
2018-01-27T19:20:57.477Z,20.63
2018-01-27T19:23:25.049Z,20.90
2018-01-27T19:25:52.599Z,21.97
2018-01-27T19:28:20.150Z,22.83
2018-01-27T19:30:48.487Z,21.80
2018-01-27T19:33:16.033Z,20.63
2018-01-27T19:35:43.681Z,23.20
2018-01-27T19:38:11.225Z,23.57
2018-01-27T19:40:38.774Z,21.37
2018-01-27T19:43:06.312Z,24.37
2018-01-27T19:45:33.868Z,23.00
2018-01-27T19:48:02.201Z,22.23
2018-01-27T19:50:29.764Z,23.37
2018-01-27T19:52:57.307Z,23.80
2018-01-27T19:55:24.872Z,25.37
2018-01-27T19:57:52.415Z,25.00
2018-01-27T20:00:19.992Z,23.10
2018-01-27T20:02:48.301Z,24.40
2018-01-27T20:05:15.843Z,24.27
2018-01-27T20:07:43.409Z,24.50
2018-01-27T20:10:10.952Z,25.47
2018-01-27T20:12:38.503Z,25.07
2018-01-27T20:15:06.054Z,26.73
2018-01-27T20:17:33.610Z,24.97
2018-01-27T20:20:01.156Z,26.30
2018-01-27T20:22:28.716Z,25.53
2018-01-27T20:24:56.257Z,27.70
2018-01-27T20:27:23.815Z,27.80
2018-01-27T20:29:52.149Z,26.40
2018-01-27T20:32:19.708Z,25.33
2018-01-27T20:34:48.016Z,26.37
2018-01-27T20:37:16.328Z,27.77
2018-01-27T20:39:43.887Z,27.37
2018-01-27T20:42:12.201Z,27.67
2018-01-27T20:44:40.533Z,28.43
2018-01-27T20:47:08.089Z,28.17
2018-01-27T20:49:36.425Z,27.83
2018-01-27T20:52:03.973Z,27.03
2018-01-27T20:54:32.325Z,27.07
2018-01-27T20:56:59.873Z,31.23
2018-01-27T20:59:27.464Z,27.33
2018-01-27T21:01:55.014Z,28.27
2018-01-27T21:04:23.341Z,27.97
2018-01-27T21:06:50.885Z,29.40
2018-01-27T21:09:18.448Z,30.07
2018-01-27T21:11:46.009Z,28.70
2018-01-27T21:14:13.568Z,28.70
2018-01-27T21:16:41.880Z,30.43
2018-01-27T21:19:09.420Z,29.80
2018-01-27T21:21:36.984Z,28.37
2018-01-27T21:24:04.522Z,28.63
2018-01-27T21:26:32.848Z,29.87
2018-01-27T21:29:00.400Z,29.43
2018-01-27T21:31:28.733Z,30.07
2018-01-27T21:33:56.280Z,28.17
2018-01-27T21:36:24.609Z,29.60
2018-01-27T21:38:52.156Z,29.43
2018-01-27T21:41:19.716Z,27.87
2018-01-27T21:43:47.256Z,26.80
2018-01-27T21:46:14.817Z,27.70
2018-01-27T21:48:42.365Z,28.27
2018-01-27T21:51:09.948Z,27.40
2018-01-27T21:53:37.532Z,25.87
2018-01-27T21:56:05.068Z,26.63
2018-01-27T21:58:34.252Z,26.23
2018-01-27T22:01:01.817Z,25.03
2018-01-27T22:03:31.936Z,29.27
2018-01-27T22:05:59.488Z,27.40
2018-01-27T22:08:27.814Z,26.13
2018-01-27T22:10:55.362Z,24.03
2018-01-27T22:13:22.927Z,25.00
2018-01-27T22:15:50.459Z,25.10
2018-01-27T22:18:18.815Z,25.37
2018-01-27T22:20:46.348Z,24.63
2018-01-27T22:23:13.912Z,22.77
2018-01-27T22:25:42.235Z,24.33
2018-01-27T22:28:09.794Z,24.10
2018-01-27T22:30:37.348Z,26.00
2018-01-27T22:33:04.896Z,23.80
2018-01-27T22:35:32.461Z,23.20
2018-01-27T22:37:59.999Z,24.50
2018-01-27T22:40:27.578Z,24.17
2018-01-27T22:42:55.115Z,22.00
2018-01-27T22:45:22.668Z,23.20
2018-01-27T22:47:50.207Z,21.20
2018-01-27T22:50:17.763Z,23.83
2018-01-27T22:52:46.079Z,25.77
2018-01-27T22:55:13.636Z,23.87
2018-01-27T22:57:41.177Z,24.10
2018-01-27T23:00:08.751Z,23.87
2018-01-27T23:02:36.287Z,23.43
2018-01-27T23:05:03.885Z,23.87
2018-01-27T23:07:32.253Z,23.73
2018-01-27T23:09:59.828Z,25.43
2018-01-27T23:12:27.373Z,23.80
2018-01-27T23:14:54.930Z,21.93
2018-01-27T23:17:23.242Z,23.83
2018-01-27T23:19:51.571Z,22.30
2018-01-27T23:22:19.115Z,21.30
2018-01-27T23:24:47.424Z,22.80
2018-01-27T23:27:15.756Z,22.67
2018-01-27T23:29:43.297Z,22.87
2018-01-27T23:32:11.661Z,21.53
2018-01-27T23:34:39.191Z,20.47
2018-01-27T23:37:07.531Z,21.87
2018-01-27T23:39:35.076Z,21.40
2018-01-27T23:42:03.410Z,19.83
2018-01-27T23:44:30.957Z,20.60
2018-01-27T23:46:59.282Z,20.20
2018-01-27T23:49:26.848Z,19.40
2018-01-27T23:51:55.175Z,20.07
2018-01-27T23:54:22.716Z,20.43
2018-01-27T23:56:50.291Z,19.57
2018-01-27T23:59:17.834Z,20.23
